createdAt,value
2022-12-18T00:00:20.582Z,15.40
2022-12-18T00:01:20.654Z,17.20
2022-12-18T00:02:20.588Z,16.90
2022-12-18T00:03:20.657Z,15.10
2022-12-18T00:04:20.589Z,16.40
2022-12-18T00:05:20.542Z,18.20
2022-12-18T00:06:20.520Z,17.50
2022-12-18T00:07:20.528Z,15.70
2022-12-18T00:08:20.495Z,18.20
2022-12-18T00:09:20.502Z,20.10
2022-12-18T00:10:20.473Z,15.80
2022-12-18T00:11:20.481Z,16.70
2022-12-18T00:12:20.485Z,16.30
2022-12-18T00:13:20.457Z,17.00
2022-12-18T00:14:20.430Z,16.80
2022-12-18T00:15:20.441Z,18.50
2022-12-18T00:16:20.447Z,17.00
2022-12-18T00:17:20.426Z,16.10
2022-12-18T00:18:20.668Z,17.00
2022-12-18T00:19:20.388Z,17.30
2022-12-18T00:20:20.361Z,14.80
2022-12-18T00:21:20.371Z,17.30
2022-12-18T00:22:20.345Z,18.60
2022-12-18T00:23:20.360Z,16.60
2022-12-18T00:24:20.313Z,18.00
2022-12-18T00:25:20.335Z,14.90
2022-12-18T00:26:20.298Z,15.50
2022-12-18T00:27:20.300Z,16.40
2022-12-18T00:28:20.293Z,14.50
2022-12-18T00:29:20.280Z,17.10
2022-12-18T00:30:20.253Z,16.20
2022-12-18T00:31:20.338Z,15.70
2022-12-18T00:32:20.249Z,15.60
2022-12-18T00:33:20.255Z,14.90
2022-12-18T00:34:20.216Z,15.00
2022-12-18T00:35:20.211Z,16.60
2022-12-18T00:36:20.195Z,17.80
2022-12-18T00:37:20.569Z,16.30
2022-12-18T00:38:20.190Z,21.20
2022-12-18T00:39:20.174Z,18.40
2022-12-18T00:40:20.167Z,18.30
2022-12-18T00:41:20.129Z,17.70
2022-12-18T00:42:20.161Z,18.60
2022-12-18T00:43:20.151Z,18.10
2022-12-18T00:44:20.120Z,16.80
2022-12-18T00:45:20.086Z,18.60
2022-12-18T00:46:20.154Z,20.60
2022-12-18T00:47:20.067Z,19.00
2022-12-18T00:48:20.091Z,20.00
2022-12-18T00:49:20.214Z,20.50
2022-12-18T00:50:20.057Z,20.10
2022-12-18T00:51:20.026Z,19.30
2022-12-18T00:52:20.026Z,19.40
2022-12-18T00:53:20.018Z,19.30
2022-12-18T00:54:20.014Z,19.40
2022-12-18T00:55:19.981Z,17.50
2022-12-18T00:56:19.986Z,17.70
2022-12-18T00:57:19.956Z,16.60
2022-12-18T00:58:19.978Z,16.60
2022-12-18T00:59:19.931Z,14.30
2022-12-18T01:00:19.932Z,15.80
2022-12-18T01:01:20.088Z,15.00
2022-12-18T01:02:20.036Z,15.70
2022-12-18T01:03:19.988Z,16.60
2022-12-18T01:04:19.912Z,16.60
2022-12-18T01:05:19.879Z,14.20
2022-12-18T01:06:19.896Z,15.00
2022-12-18T01:07:19.876Z,15.40
2022-12-18T01:08:19.892Z,16.80
2022-12-18T01:09:19.840Z,15.70
2022-12-18T01:10:19.847Z,15.80
2022-12-18T01:11:19.814Z,13.20
2022-12-18T01:12:19.840Z,13.60
2022-12-18T01:13:19.817Z,14.80
2022-12-18T01:14:19.801Z,14.50
2022-12-18T01:15:19.774Z,15.00
2022-12-18T01:16:19.793Z,13.70
2022-12-18T01:17:19.769Z,14.70
2022-12-18T01:18:19.794Z,16.50
2022-12-18T01:19:19.725Z,17.10
2022-12-18T01:20:19.746Z,15.10
2022-12-18T01:21:19.692Z,14.80
2022-12-18T01:22:19.705Z,18.90
2022-12-18T01:23:19.672Z,15.90
2022-12-18T01:24:19.703Z,16.90
2022-12-18T01:25:19.656Z,18.90
2022-12-18T01:26:19.664Z,17.50
2022-12-18T01:27:19.638Z,17.10
2022-12-18T01:28:19.633Z,17.50
2022-12-18T01:29:19.638Z,15.90
2022-12-18T01:30:19.612Z,17.40
2022-12-18T01:31:19.654Z,19.20
2022-12-18T01:32:19.590Z,16.20
2022-12-18T01:33:19.581Z,18.00
2022-12-18T01:34:19.580Z,20.40
2022-12-18T01:35:19.562Z,19.10
2022-12-18T01:36:19.542Z,18.60
2022-12-18T01:37:19.526Z,18.80
2022-12-18T01:38:19.530Z,19.20
2022-12-18T01:39:19.501Z,17.70
2022-12-18T01:40:19.509Z,17.00
2022-12-18T01:41:19.511Z,18.50
2022-12-18T01:42:19.494Z,20.40
2022-12-18T01:43:19.457Z,18.00
2022-12-18T01:44:19.473Z,17.10
2022-12-18T01:45:19.440Z,16.90
2022-12-18T01:46:19.529Z,17.30
2022-12-18T01:47:19.421Z,14.30
2022-12-18T01:48:19.419Z,15.00
2022-12-18T01:49:19.395Z,16.60
2022-12-18T01:50:19.393Z,17.30
2022-12-18T01:51:19.380Z,17.10
2022-12-18T01:52:19.381Z,20.10
2022-12-18T01:53:19.355Z,18.20
2022-12-18T01:54:19.359Z,19.30
2022-12-18T01:55:19.334Z,16.40
2022-12-18T01:56:19.357Z,20.20
2022-12-18T01:57:19.305Z,19.70
2022-12-18T01:58:19.311Z,24.00
2022-12-18T01:59:19.291Z,19.80
2022-12-18T02:00:19.291Z,18.20
2022-12-18T02:01:19.383Z,17.00
2022-12-18T02:02:19.351Z,17.70
2022-12-18T02:03:19.291Z,19.70
2022-12-18T02:04:19.247Z,19.60
2022-12-18T02:05:19.219Z,20.10
2022-12-18T02:06:19.240Z,21.20
2022-12-18T02:07:19.204Z,20.80
2022-12-18T02:08:19.206Z,21.30
2022-12-18T02:09:19.178Z,19.70
2022-12-18T02:10:19.177Z,19.40
2022-12-18T02:11:19.170Z,20.70
2022-12-18T02:12:19.158Z,23.80
2022-12-18T02:13:19.134Z,22.20
2022-12-18T02:14:19.136Z,23.10
2022-12-18T02:15:19.114Z,23.60
2022-12-18T02:16:19.189Z,26.40
2022-12-18T02:17:19.105Z,24.30
2022-12-18T02:18:19.092Z,26.90
2022-12-18T02:19:19.066Z,21.50
2022-12-18T02:20:19.091Z,22.70
2022-12-18T02:21:19.045Z,23.90
2022-12-18T02:22:19.070Z,24.50
2022-12-18T02:23:19.024Z,21.60
2022-12-18T02:24:19.027Z,24.20
2022-12-18T02:25:19.002Z,24.30
2022-12-18T02:26:19.008Z,21.20
2022-12-18T02:27:18.983Z,20.30
2022-12-18T02:28:19.008Z,18.40
2022-12-18T02:29:18.970Z,19.70
2022-12-18T02:30:18.974Z,20.30
2022-12-18T02:31:19.011Z,17.30
2022-12-18T02:32:18.944Z,19.90
2022-12-18T02:33:18.918Z,17.70
2022-12-18T02:34:18.933Z,19.50
2022-12-18T02:35:18.893Z,19.60
2022-12-18T02:36:18.896Z,18.40
2022-12-18T02:37:18.877Z,21.50
2022-12-18T02:38:18.886Z,23.80
2022-12-18T02:39:18.862Z,22.70
2022-12-18T02:40:18.852Z,21.10
2022-12-18T02:41:18.832Z,19.70
2022-12-18T02:42:18.823Z,20.30
2022-12-18T02:43:18.815Z,19.00
2022-12-18T02:44:18.833Z,20.70
2022-12-18T02:45:18.790Z,23.30
2022-12-18T02:46:18.831Z,22.30
2022-12-18T02:47:18.766Z,22.40
2022-12-18T02:48:18.774Z,18.80
2022-12-18T02:49:18.765Z,21.20
2022-12-18T02:50:18.747Z,24.00
2022-12-18T02:51:18.717Z,22.60
2022-12-18T02:52:18.725Z,23.00
2022-12-18T02:53:18.700Z,23.90
2022-12-18T02:54:18.705Z,18.70
2022-12-18T02:55:18.691Z,20.50
2022-12-18T02:56:18.680Z,19.70
2022-12-18T02:57:18.654Z,20.50
2022-12-18T02:58:18.664Z,22.70
2022-12-18T02:59:18.632Z,18.90
2022-12-18T03:00:18.650Z,19.90
2022-12-18T03:01:18.755Z,21.60
2022-12-18T03:02:18.832Z,23.40
2022-12-18T03:03:18.670Z,20.30
2022-12-18T03:04:18.605Z,19.00
2022-12-18T03:05:18.572Z,20.20
2022-12-18T03:06:18.585Z,23.10
2022-12-18T03:07:18.547Z,20.50
2022-12-18T03:08:18.550Z,20.50
2022-12-18T03:09:18.525Z,18.50
2022-12-18T03:10:18.533Z,18.70
2022-12-18T03:11:18.521Z,16.90
2022-12-18T03:12:18.514Z,20.10
2022-12-18T03:13:18.480Z,17.60
2022-12-18T03:14:18.480Z,18.30
2022-12-18T03:15:18.460Z,18.00
2022-12-18T03:16:18.519Z,18.10
2022-12-18T03:17:18.441Z,17.90
2022-12-18T03:18:18.446Z,17.90
2022-12-18T03:19:18.415Z,17.70
2022-12-18T03:20:18.419Z,15.60
2022-12-18T03:21:18.400Z,15.00
2022-12-18T03:22:18.413Z,17.70
2022-12-18T03:23:18.376Z,19.80
2022-12-18T03:24:18.382Z,19.40
2022-12-18T03:25:18.360Z,19.90
2022-12-18T03:26:18.358Z,17.30
2022-12-18T03:27:18.340Z,19.20
2022-12-18T03:28:18.340Z,16.60
2022-12-18T03:29:18.308Z,19.50
2022-12-18T03:30:18.307Z,17.90
2022-12-18T03:31:18.332Z,17.60
2022-12-18T03:32:18.313Z,22.00
2022-12-18T03:33:18.268Z,21.10
2022-12-18T03:34:18.298Z,21.50
2022-12-18T03:35:18.244Z,20.40
2022-12-18T03:36:18.250Z,20.30
2022-12-18T03:37:18.238Z,19.00
2022-12-18T03:38:18.227Z,18.90
2022-12-18T03:39:18.194Z,19.50
2022-12-18T03:40:18.204Z,19.00
2022-12-18T03:41:18.178Z,20.10
2022-12-18T03:42:18.199Z,18.20
2022-12-18T03:43:18.171Z,17.00
2022-12-18T03:44:18.166Z,20.00
2022-12-18T03:45:18.138Z,19.50
2022-12-18T03:46:18.180Z,19.70
2022-12-18T03:47:18.117Z,20.20
2022-12-18T03:48:18.122Z,21.50
2022-12-18T03:49:18.112Z,21.40
2022-12-18T03:50:18.096Z,21.70
2022-12-18T03:51:18.069Z,23.50
2022-12-18T03:52:18.078Z,20.00
2022-12-18T03:53:18.054Z,19.20
2022-12-18T03:54:18.068Z,17.90
2022-12-18T03:55:18.043Z,20.90
2022-12-18T03:56:18.028Z,18.90
2022-12-18T03:57:18.009Z,17.70
2022-12-18T03:58:18.006Z,17.90
2022-12-18T03:59:17.988Z,16.30
2022-12-18T04:00:18.006Z,17.30
2022-12-18T04:01:18.042Z,16.70
2022-12-18T04:02:18.123Z,16.60
2022-12-18T04:03:17.983Z,14.70
2022-12-18T04:04:18.099Z,16.60
2022-12-18T04:05:17.934Z,15.50
2022-12-18T04:06:17.923Z,14.50
2022-12-18T04:07:17.893Z,15.90
2022-12-18T04:08:17.910Z,17.30
2022-12-18T04:09:17.884Z,15.50
2022-12-18T04:10:17.890Z,17.60
2022-12-18T04:11:17.856Z,16.60
2022-12-18T04:12:17.865Z,16.70
2022-12-18T04:13:17.826Z,16.40
2022-12-18T04:14:18.609Z,18.10
2022-12-18T04:15:17.819Z,17.20
2022-12-18T04:16:17.869Z,17.60
2022-12-18T04:17:17.789Z,18.80
2022-12-18T04:18:17.795Z,17.00
2022-12-18T04:19:17.846Z,15.80
2022-12-18T04:20:17.782Z,15.10
2022-12-18T04:21:17.732Z,17.70
2022-12-18T04:22:17.739Z,18.20
2022-12-18T04:23:17.715Z,19.00
2022-12-18T04:24:17.765Z,15.90
2022-12-18T04:25:17.717Z,15.70
2022-12-18T04:26:17.710Z,16.20
2022-12-18T04:27:17.686Z,16.70
2022-12-18T04:28:17.681Z,18.70
2022-12-18T04:29:17.693Z,16.10
2022-12-18T04:30:17.661Z,17.50
2022-12-18T04:31:17.688Z,20.80
2022-12-18T04:32:17.640Z,17.60
2022-12-18T04:33:17.624Z,15.10
2022-12-18T04:34:17.682Z,16.50
2022-12-18T04:35:17.585Z,15.30
2022-12-18T04:36:17.602Z,22.50
2022-12-18T04:37:17.584Z,16.60
2022-12-18T04:38:17.580Z,16.20
2022-12-18T04:39:17.639Z,18.60
2022-12-18T04:40:17.552Z,17.10
2022-12-18T04:41:17.518Z,19.90
2022-12-18T04:42:17.542Z,18.50
2022-12-18T04:43:17.537Z,18.60
2022-12-18T04:44:17.600Z,18.00
2022-12-18T04:45:17.488Z,18.40
2022-12-18T04:46:17.525Z,16.90
2022-12-18T04:47:17.479Z,17.60
2022-12-18T04:48:17.459Z,18.30
2022-12-18T04:49:17.510Z,19.60
2022-12-18T04:50:17.441Z,20.60
2022-12-18T04:51:19.878Z,17.90
2022-12-18T04:52:18.449Z,18.90
2022-12-18T04:53:17.395Z,15.50
2022-12-18T04:54:17.510Z,17.20
2022-12-18T04:55:17.376Z,18.80
2022-12-18T04:56:17.369Z,16.90
2022-12-18T04:57:17.381Z,17.20
2022-12-18T04:58:17.359Z,16.60
2022-12-18T04:59:17.351Z,16.20
2022-12-18T05:00:17.321Z,15.30
2022-12-18T05:01:17.516Z,15.80
2022-12-18T05:02:17.376Z,18.50
2022-12-18T05:03:17.336Z,14.30
2022-12-18T05:04:17.434Z,15.50
2022-12-18T05:05:17.287Z,15.20
2022-12-18T05:06:17.250Z,13.70
2022-12-18T05:07:17.269Z,14.60
2022-12-18T05:08:17.234Z,16.80
2022-12-18T05:09:17.342Z,14.70
2022-12-18T05:10:17.207Z,15.00
2022-12-18T05:11:17.216Z,15.00
2022-12-18T05:12:17.189Z,17.10
2022-12-18T05:13:17.215Z,16.20
2022-12-18T05:14:17.177Z,14.20
2022-12-18T05:15:17.175Z,17.20
2022-12-18T05:16:17.310Z,15.90
2022-12-18T05:17:17.145Z,15.60
2022-12-18T05:18:17.127Z,16.40
2022-12-18T05:19:17.145Z,15.90
2022-12-18T05:20:17.104Z,14.90
2022-12-18T05:21:17.106Z,16.00
2022-12-18T05:22:17.091Z,17.70
2022-12-18T05:23:17.085Z,16.30
2022-12-18T05:24:17.056Z,14.00
2022-12-18T05:25:17.077Z,14.30
2022-12-18T05:26:17.037Z,15.30
2022-12-18T05:27:17.038Z,16.10
2022-12-18T05:28:17.021Z,14.90
2022-12-18T05:29:17.027Z,15.50
2022-12-18T05:30:17.009Z,15.20
2022-12-18T05:31:17.077Z,13.70
2022-12-18T05:32:16.967Z,13.70
2022-12-18T05:33:16.978Z,16.50
2022-12-18T05:34:16.955Z,16.00
2022-12-18T05:35:16.982Z,16.10
2022-12-18T05:36:16.941Z,18.20
2022-12-18T05:37:16.934Z,14.00
2022-12-18T05:38:16.912Z,13.10
2022-12-18T05:39:16.916Z,16.20
2022-12-18T05:40:16.900Z,14.10
2022-12-18T05:41:16.895Z,15.20
2022-12-18T05:42:16.870Z,16.40
2022-12-18T05:43:21.111Z,13.70
2022-12-18T05:44:16.838Z,15.90
2022-12-18T05:45:16.851Z,16.40
2022-12-18T05:46:16.876Z,14.80
2022-12-18T05:47:16.823Z,15.20
2022-12-18T05:48:16.798Z,16.30
2022-12-18T05:49:16.798Z,15.50
2022-12-18T05:50:16.772Z,16.10
2022-12-18T05:51:16.785Z,16.50
2022-12-18T05:52:16.773Z,14.80
2022-12-18T05:53:16.760Z,16.10
2022-12-18T05:54:16.734Z,15.80
2022-12-18T05:55:16.738Z,16.00
2022-12-18T05:56:16.712Z,16.30
2022-12-18T05:57:16.733Z,15.30
2022-12-18T05:58:16.692Z,15.00
2022-12-18T05:59:16.691Z,17.20
2022-12-18T06:00:16.671Z,17.70
2022-12-18T06:01:16.774Z,15.70
2022-12-18T06:02:16.737Z,16.40
2022-12-18T06:03:16.806Z,16.40
2022-12-18T06:04:16.668Z,17.30
2022-12-18T06:05:16.633Z,16.90
2022-12-18T06:06:16.601Z,15.10
2022-12-18T06:07:16.606Z,16.70
2022-12-18T06:08:16.595Z,17.10
2022-12-18T06:09:16.589Z,15.70
2022-12-18T06:10:16.553Z,14.70
2022-12-18T06:11:16.559Z,18.50
2022-12-18T06:12:16.551Z,13.70
2022-12-18T06:13:16.560Z,14.80
2022-12-18T06:14:16.511Z,14.40
2022-12-18T06:15:16.519Z,16.20
2022-12-18T06:16:16.544Z,14.20
2022-12-18T06:17:16.507Z,13.90
2022-12-18T06:18:16.489Z,15.40
2022-12-18T06:19:16.479Z,15.10
2022-12-18T06:20:16.457Z,14.80
2022-12-18T06:21:16.447Z,17.00
2022-12-18T06:22:16.435Z,15.60
2022-12-18T06:23:16.447Z,16.10
2022-12-18T06:24:16.410Z,15.40
2022-12-18T06:25:16.415Z,15.50
2022-12-18T06:26:16.383Z,15.00
2022-12-18T06:27:16.398Z,15.40
2022-12-18T06:28:16.376Z,20.00
2022-12-18T06:29:16.370Z,19.00
2022-12-18T06:30:16.348Z,15.90
2022-12-18T06:31:16.384Z,18.00
2022-12-18T06:32:16.325Z,18.10
2022-12-18T06:33:16.338Z,14.70
2022-12-18T06:34:16.297Z,14.50
2022-12-18T06:35:16.298Z,17.10
2022-12-18T06:36:16.278Z,14.30
2022-12-18T06:37:16.286Z,15.60
2022-12-18T06:38:16.278Z,15.60
2022-12-18T06:39:16.274Z,14.70
2022-12-18T06:40:16.228Z,13.90
2022-12-18T06:41:16.241Z,15.30
2022-12-18T06:42:16.205Z,13.70
2022-12-18T06:43:16.222Z,12.90
2022-12-18T06:44:16.198Z,14.20
2022-12-18T06:45:16.201Z,12.80
2022-12-18T06:46:16.214Z,12.80
2022-12-18T06:47:16.171Z,13.90
2022-12-18T06:48:16.161Z,11.80
2022-12-18T06:49:16.150Z,13.00
2022-12-18T06:50:16.128Z,13.30
2022-12-18T06:51:16.126Z,14.30
2022-12-18T06:52:16.098Z,14.10
2022-12-18T06:53:16.122Z,14.50
2022-12-18T06:54:16.075Z,12.80
2022-12-18T06:55:16.092Z,11.20
2022-12-18T06:56:16.058Z,12.30
2022-12-18T06:57:16.065Z,12.80
2022-12-18T06:58:16.063Z,13.10
2022-12-18T06:59:16.061Z,13.30
2022-12-18T07:00:16.026Z,12.90
2022-12-18T07:01:16.140Z,16.20
2022-12-18T07:02:16.097Z,12.90
2022-12-18T07:03:16.040Z,13.00
2022-12-18T07:04:15.970Z,14.00
2022-12-18T07:05:15.983Z,15.20
2022-12-18T07:06:15.956Z,13.90
2022-12-18T07:07:15.965Z,16.10
2022-12-18T07:08:15.942Z,13.90
2022-12-18T07:09:15.988Z,16.40
2022-12-18T07:10:15.908Z,15.10
2022-12-18T07:11:15.918Z,13.90
2022-12-18T07:12:15.889Z,13.10
2022-12-18T07:13:15.903Z,13.50
2022-12-18T07:14:15.863Z,13.00
2022-12-18T07:15:15.893Z,16.60
2022-12-18T07:16:22.313Z,14.80
2022-12-18T07:17:16.853Z,15.70
2022-12-18T07:18:15.831Z,15.30
2022-12-18T07:19:15.822Z,16.00
2022-12-18T07:20:15.801Z,13.60
2022-12-18T07:21:15.822Z,15.70
2022-12-18T07:22:15.782Z,17.20
2022-12-18T07:23:15.789Z,15.90
2022-12-18T07:24:15.758Z,15.40
2022-12-18T07:25:15.762Z,17.40
2022-12-18T07:26:15.750Z,16.40
2022-12-18T07:27:15.738Z,16.40
2022-12-18T07:28:17.521Z,15.30
2022-12-18T07:29:15.729Z,15.30
2022-12-18T07:30:15.692Z,16.80
2022-12-18T07:31:15.805Z,18.20
2022-12-18T07:32:15.673Z,14.60
2022-12-18T07:33:15.670Z,14.20
2022-12-18T07:34:15.649Z,12.60
2022-12-18T07:35:17.439Z,14.00
2022-12-18T07:36:16.636Z,15.60
2022-12-18T07:37:15.630Z,13.20
2022-12-18T07:38:15.607Z,17.20
2022-12-18T07:39:15.605Z,15.70
2022-12-18T07:40:15.582Z,19.00
2022-12-18T07:41:15.607Z,18.80
2022-12-18T07:42:15.560Z,19.00
2022-12-18T07:43:15.569Z,16.40
2022-12-18T07:44:15.554Z,19.10
2022-12-18T07:45:15.552Z,19.00
2022-12-18T07:46:15.602Z,19.40
2022-12-18T07:47:15.520Z,15.60
2022-12-18T07:48:15.502Z,16.10
2022-12-18T07:49:15.502Z,17.50
2022-12-18T07:50:15.480Z,18.00
2022-12-18T07:51:15.480Z,17.80
2022-12-18T07:52:15.492Z,16.80
2022-12-18T07:53:15.445Z,15.20
2022-12-18T07:54:15.452Z,18.10
2022-12-18T07:55:15.438Z,17.20
2022-12-18T07:56:27.166Z,15.60
2022-12-18T07:57:41.342Z,16.80
2022-12-18T07:58:16.388Z,16.20
2022-12-18T07:59:15.396Z,14.60
2022-12-18T08:00:15.371Z,16.80
2022-12-18T08:01:15.496Z,17.00
2022-12-18T08:02:15.477Z,18.10
2022-12-18T08:03:15.424Z,16.20
2022-12-18T08:04:15.335Z,15.50
2022-12-18T08:05:15.339Z,15.80
2022-12-18T08:06:15.303Z,15.00
2022-12-18T08:07:15.321Z,15.10
2022-12-18T08:08:15.284Z,15.40
2022-12-18T08:09:15.287Z,13.90
2022-12-18T08:10:15.257Z,14.10
2022-12-18T08:11:15.272Z,14.50
2022-12-18T08:12:15.242Z,14.80
2022-12-18T08:13:15.236Z,15.50
2022-12-18T08:14:15.234Z,15.30
2022-12-18T08:15:15.211Z,14.40
2022-12-18T08:16:15.271Z,16.00
2022-12-18T08:17:15.192Z,14.90
2022-12-18T08:18:15.173Z,16.20
2022-12-18T08:19:15.176Z,15.40
2022-12-18T08:20:15.161Z,14.90
2022-12-18T08:21:15.141Z,15.50
2022-12-18T08:22:15.132Z,17.10
2022-12-18T08:23:15.126Z,15.20
2022-12-18T08:24:15.115Z,15.10
2022-12-18T08:25:15.114Z,16.00
2022-12-18T08:26:15.082Z,17.30
2022-12-18T08:27:30.629Z,14.90
2022-12-18T08:28:16.061Z,16.00
2022-12-18T08:29:19.964Z,16.60
2022-12-18T08:30:16.038Z,15.40
2022-12-18T08:31:15.093Z,17.20
2022-12-18T08:32:15.083Z,19.00
2022-12-18T08:33:15.044Z,17.30
2022-12-18T08:34:15.006Z,18.30
2022-12-18T08:35:18.605Z,17.30
2022-12-18T08:36:14.969Z,16.40
2022-12-18T08:37:14.974Z,18.00
2022-12-18T08:38:14.943Z,18.70
2022-12-18T08:39:14.946Z,19.90
2022-12-18T08:40:14.942Z,17.70
2022-12-18T08:41:14.935Z,20.00
2022-12-18T08:42:14.905Z,19.20
2022-12-18T08:43:14.921Z,18.90
2022-12-18T08:44:14.890Z,19.60
2022-12-18T08:45:14.884Z,18.40
2022-12-18T08:46:14.919Z,16.30
2022-12-18T08:47:14.868Z,15.90
2022-12-18T08:48:20.595Z,16.90
2022-12-18T08:49:15.848Z,16.90
2022-12-18T08:50:14.826Z,19.30
2022-12-18T08:51:14.843Z,17.50
2022-12-18T08:52:14.799Z,16.70
2022-12-18T08:53:14.803Z,19.90
2022-12-18T08:54:14.799Z,19.60
2022-12-18T08:55:14.783Z,18.60
2022-12-18T08:56:14.759Z,18.70
2022-12-18T08:57:14.786Z,16.30
2022-12-18T08:58:14.734Z,17.00
2022-12-18T08:59:19.458Z,16.20
2022-12-18T09:00:15.706Z,16.30
2022-12-18T09:01:14.913Z,17.40
2022-12-18T09:02:14.817Z,16.90
2022-12-18T09:03:14.746Z,15.70
2022-12-18T09:04:14.660Z,16.90
2022-12-18T09:05:14.670Z,16.40
2022-12-18T09:06:14.637Z,15.10
2022-12-18T09:07:14.644Z,17.50
2022-12-18T09:08:14.625Z,16.70
2022-12-18T09:09:14.655Z,16.20
2022-12-18T09:10:14.606Z,16.40
2022-12-18T09:11:14.609Z,17.20
2022-12-18T09:12:14.608Z,18.70
2022-12-18T09:13:14.598Z,19.30
2022-12-18T09:14:14.598Z,18.60
2022-12-18T09:15:14.569Z,18.00
2022-12-18T09:16:14.599Z,20.20
2022-12-18T09:17:14.566Z,19.80
2022-12-18T09:18:14.528Z,19.20
2022-12-18T09:19:14.500Z,18.20
2022-12-18T09:20:14.518Z,21.70
2022-12-18T09:21:14.480Z,22.40
2022-12-18T09:22:14.485Z,21.80
2022-12-18T09:23:14.458Z,21.70
2022-12-18T09:24:14.452Z,20.60
2022-12-18T09:25:14.465Z,22.30
2022-12-18T09:26:14.442Z,22.20
2022-12-18T09:27:14.440Z,19.60
2022-12-18T09:28:14.426Z,17.60
2022-12-18T09:29:14.398Z,18.90
2022-12-18T09:30:14.421Z,20.50
2022-12-18T09:31:14.432Z,21.20
2022-12-18T09:32:18.931Z,20.10
2022-12-18T09:33:15.358Z,21.60
2022-12-18T09:34:14.353Z,19.00
2022-12-18T09:35:14.323Z,17.60
2022-12-18T09:36:14.338Z,25.10
2022-12-18T09:37:14.299Z,21.40
2022-12-18T09:38:14.311Z,18.90
2022-12-18T09:39:14.285Z,20.70
2022-12-18T09:40:14.275Z,20.40
2022-12-18T09:41:14.284Z,20.40
2022-12-18T09:42:14.277Z,20.80
2022-12-18T09:43:14.248Z,21.70
2022-12-18T09:44:14.329Z,19.80
2022-12-18T09:45:14.297Z,22.50
2022-12-18T09:46:14.263Z,20.10
2022-12-18T09:47:14.207Z,18.10
2022-12-18T09:48:14.202Z,22.30
2022-12-18T09:49:14.176Z,19.20
2022-12-18T09:50:17.320Z,19.00
2022-12-18T09:51:14.146Z,21.60
2022-12-18T09:52:14.150Z,20.60
2022-12-18T09:53:14.137Z,18.50
2022-12-18T09:54:14.137Z,20.50
2022-12-18T09:55:14.108Z,20.80
2022-12-18T09:56:14.134Z,18.00
2022-12-18T09:57:14.083Z,20.40
2022-12-18T09:58:14.097Z,22.10
2022-12-18T09:59:14.061Z,17.30
2022-12-18T10:00:14.056Z,18.90
2022-12-18T10:01:14.078Z,20.20
2022-12-18T10:02:14.100Z,19.40
2022-12-18T10:03:14.144Z,19.10
2022-12-18T10:04:14.074Z,20.30
2022-12-18T10:05:14.005Z,20.00
2022-12-18T10:06:14.004Z,21.50
2022-12-18T10:07:13.965Z,18.00
2022-12-18T10:08:13.998Z,17.80
2022-12-18T10:09:13.944Z,17.20
2022-12-18T10:10:13.954Z,19.60
2022-12-18T10:11:13.926Z,17.30
2022-12-18T10:12:13.928Z,17.10
2022-12-18T10:13:13.915Z,17.70
2022-12-18T10:14:13.924Z,19.30
2022-12-18T10:15:13.884Z,19.60
2022-12-18T10:16:13.928Z,20.20
2022-12-18T10:17:13.898Z,17.50
2022-12-18T10:18:17.359Z,18.00
2022-12-18T10:19:14.865Z,17.60
2022-12-18T10:20:13.845Z,18.40
2022-12-18T10:21:13.815Z,19.90
2022-12-18T10:22:13.826Z,18.90
2022-12-18T10:23:13.795Z,16.30
2022-12-18T10:24:13.813Z,20.00
2022-12-18T10:25:13.768Z,16.40
2022-12-18T10:26:13.776Z,19.20
2022-12-18T10:27:13.744Z,21.20
2022-12-18T10:28:13.754Z,20.00
2022-12-18T10:29:13.734Z,19.70
2022-12-18T10:30:13.815Z,19.40
2022-12-18T10:31:13.705Z,20.40
2022-12-18T10:32:13.715Z,19.70
2022-12-18T10:33:13.678Z,20.80
2022-12-18T10:34:13.692Z,17.70
2022-12-18T10:35:13.665Z,17.80
2022-12-18T10:36:13.706Z,17.60
2022-12-18T10:37:13.643Z,20.00
2022-12-18T10:38:13.648Z,19.10
2022-12-18T10:39:13.621Z,17.90
2022-12-18T10:40:19.868Z,19.80
2022-12-18T10:41:14.618Z,19.40
2022-12-18T10:42:13.604Z,20.00
2022-12-18T10:43:13.573Z,18.30
2022-12-18T10:44:13.582Z,19.40
2022-12-18T10:45:13.556Z,18.40
2022-12-18T10:46:13.707Z,17.50
2022-12-18T10:47:13.538Z,18.80
2022-12-18T10:48:13.532Z,18.70
2022-12-18T10:49:13.528Z,19.00
2022-12-18T10:50:13.539Z,16.50
2022-12-18T10:51:13.846Z,17.80
2022-12-18T10:52:13.511Z,17.20
2022-12-18T10:53:13.466Z,18.00
2022-12-18T10:54:13.474Z,17.30
2022-12-18T10:55:13.442Z,17.90
2022-12-18T10:56:13.451Z,16.30
2022-12-18T10:57:13.444Z,17.80
2022-12-18T10:58:13.432Z,17.90
2022-12-18T10:59:13.402Z,18.40
2022-12-18T11:00:13.413Z,15.80
2022-12-18T11:01:13.424Z,17.10
2022-12-18T11:02:13.533Z,19.30
2022-12-18T11:03:13.510Z,18.20
2022-12-18T11:04:13.348Z,16.90
2022-12-18T11:05:13.345Z,17.30
2022-12-18T11:06:13.340Z,18.60
2022-12-18T11:07:13.327Z,16.80
2022-12-18T11:08:13.317Z,15.30
2022-12-18T11:09:15.546Z,18.00
2022-12-18T11:10:13.299Z,16.80
2022-12-18T11:11:13.263Z,18.40
2022-12-18T11:12:13.295Z,19.80
2022-12-18T11:13:13.243Z,20.20
2022-12-18T11:14:13.246Z,17.30
2022-12-18T11:15:13.221Z,20.10
2022-12-18T11:16:13.300Z,21.30
2022-12-18T11:17:28.448Z,18.70
2022-12-18T11:18:14.220Z,19.20
2022-12-18T11:19:13.181Z,20.00
2022-12-18T11:20:13.180Z,19.80
2022-12-18T11:21:13.148Z,18.50
2022-12-18T11:22:13.154Z,19.50
2022-12-18T11:23:13.155Z,17.60
2022-12-18T11:24:13.139Z,22.00
2022-12-18T11:26:14.115Z,17.80
2022-12-18T11:27:13.078Z,19.70
2022-12-18T11:28:13.110Z,18.50
2022-12-18T11:29:13.070Z,21.30
2022-12-18T11:30:13.071Z,20.30
2022-12-18T11:31:13.089Z,20.70
2022-12-18T11:32:13.057Z,17.70
2022-12-18T11:33:13.017Z,18.00
2022-12-18T11:34:28.696Z,19.20
2022-12-18T11:35:14.006Z,18.70
2022-12-18T11:36:13.008Z,16.50
2022-12-18T11:37:12.994Z,18.20
2022-12-18T11:38:12.986Z,17.00
2022-12-18T11:39:12.953Z,17.80
2022-12-18T11:40:12.988Z,18.00
2022-12-18T11:41:13.009Z,20.00
2022-12-18T11:42:13.217Z,19.70
2022-12-18T11:43:12.919Z,20.00
2022-12-18T11:44:12.926Z,17.20
2022-12-18T11:45:12.901Z,19.00
2022-12-18T11:46:19.117Z,18.80
2022-12-18T11:47:13.857Z,17.10
2022-12-18T11:48:12.872Z,18.30
2022-12-18T11:49:12.847Z,16.30
2022-12-18T11:50:12.887Z,17.60
2022-12-18T11:51:12.820Z,17.00
2022-12-18T11:52:12.839Z,17.90
2022-12-18T11:53:12.802Z,18.00
2022-12-18T11:54:12.809Z,16.60
2022-12-18T11:55:12.781Z,17.30
2022-12-18T11:56:12.806Z,14.50
2022-12-18T11:57:12.820Z,17.90
2022-12-18T11:58:12.765Z,16.10
2022-12-18T11:59:12.735Z,16.50
2022-12-18T12:00:12.757Z,17.20
2022-12-18T12:01:12.747Z,18.00
2022-12-18T12:02:12.759Z,19.30
2022-12-18T12:03:12.718Z,17.00
2022-12-18T12:04:12.748Z,16.70
2022-12-18T12:05:12.671Z,18.70
2022-12-18T12:06:12.670Z,17.80
2022-12-18T12:07:12.666Z,17.20
2022-12-18T12:08:12.667Z,15.40
2022-12-18T12:09:12.626Z,16.70
2022-12-18T12:10:12.631Z,17.50
2022-12-18T12:11:12.605Z,17.70
2022-12-18T12:12:12.616Z,18.70
2022-12-18T12:13:12.579Z,15.10
2022-12-18T12:14:12.587Z,17.20
2022-12-18T12:15:12.554Z,15.60
2022-12-18T12:16:12.602Z,15.00
2022-12-18T12:17:12.553Z,16.50
2022-12-18T12:18:12.553Z,15.80
2022-12-18T12:19:12.532Z,15.40
2022-12-18T12:20:12.517Z,18.10
2022-12-18T12:21:12.487Z,17.50
2022-12-18T12:22:12.515Z,16.00
2022-12-18T12:23:12.521Z,17.60
2022-12-18T12:24:12.469Z,17.10
2022-12-18T12:25:12.444Z,17.00
2022-12-18T12:26:12.470Z,17.70
2022-12-18T12:27:12.421Z,17.20
2022-12-18T12:28:12.441Z,16.60
2022-12-18T12:29:14.412Z,20.00
2022-12-18T12:30:13.479Z,17.10
2022-12-18T12:31:12.438Z,19.40
2022-12-18T12:32:12.389Z,17.70
2022-12-18T12:33:12.376Z,22.00
2022-12-18T12:34:12.444Z,19.10
2022-12-18T12:35:12.339Z,16.80
2022-12-18T12:36:12.351Z,17.40
2022-12-18T12:37:12.328Z,20.90
2022-12-18T12:38:12.345Z,20.00
2022-12-18T12:39:12.321Z,19.60
2022-12-18T12:40:48.289Z,20.10
2022-12-18T12:41:13.278Z,20.50
2022-12-18T12:42:12.282Z,19.60
2022-12-18T12:43:12.246Z,19.20
2022-12-18T12:44:12.273Z,22.00
2022-12-18T12:45:12.222Z,24.40
2022-12-18T12:46:12.278Z,22.20
2022-12-18T12:47:12.205Z,20.20
2022-12-18T12:48:12.209Z,21.00
2022-12-18T12:49:12.223Z,19.70
2022-12-18T12:50:12.210Z,17.50
2022-12-18T12:51:12.193Z,18.80
2022-12-18T12:52:12.221Z,19.30
2022-12-18T12:53:12.142Z,20.30